Pagina principale
METAR-TAF:

METAR-TAF

Aeroporti :

Tongatapu, Tonga

latitudine: 21-14S, longitudine: 175-09W, altezza: 38 m

Osservazione

Il bollettino è stato emesso 21 minuti fa, alle 14:00 UTC
Vento 10 kt da est/sud-est
Temperature 22°C
Umidità 65%
Pressione 1018 hPa
Visibilità 10 km o più
Poco nuvoloso ad un'altezza di 1600 ft
Nuvoloso ad un'altezza di 4000 ft

METAR: NFTF 191400Z 11010KT 9999 FEW016 BKN040 22/15 Q1018

Ora: 03:21 (14:21 UTC)

Previsione

Il bollettino è stato emesso 3 ore e 9 minuti fa, alle 11:12 UTC
Previsione valida dal 19 alle 12 UTC al 20 alle 12 UTC
Vento 12 kt da est/sud-est
Visibilità 10 km o più
Poco nuvoloso ad un'altezza di 900 ft
Nubi sparse ad un'altezza di 1600 ft
Nuvoloso ad un'altezza di 4000 ft
Probabilità 30% :
Temporaneamente
dal 19 alle 20 UTC al 20 alle 06 UTC
Vento 15 kt da est/sud-est con raffiche fino a 25 kt

TAF: NFTF 191112Z 1912/2012 11012KT 9999 FEW009 SCT016 BKN040 PROB30 TEMPO 1920/2006 12015G25KT

Osservazioni e previsioni meteorologiche di più di 4000 aeroporti (messaggi METAR e TAF).

Le stazioni disponibili sono rappresentate dai dischi gialli e rossi sulla carta.

Puntare il mouse per vedere il nome della stazione.

Clicca sopra per visualizzare le osservazioni e previsioni meteorologiche.

Per cambiare la mappa : fare clic sui pulsanti verdi con una croce nera per ingrandire, il pulsante verde con un trattino per diminuire, o sulla freccia verde per le mappe adiacenti.


METAR-TAF: